CheckWX is a tool to help pilots better visualize weather data.  It is not intended as a substitute for an official pre-flight weather briefing.

07:13:57 UTC

EGQS TAF
RAF Lossiemouth Airport
Lossiemouth, United Kingdom
TAF EGQS 241318Z 2415/2509 26015G25KT 9999 FEW022 BKN030 PROB40 TEMPO 2415/2503 SCT022 BECMG 2419/2422 22012KT

May-24@
15:00 UTC

May-24 @ 15:00 UTC

May-24@
19:00 UTC

May-24 @ 19:00 UTC

TAF EGQS 241318Z 2415/2509 26015G25KT 9999 FEW022 BKN030

Expired

Wind
  • 260° at 15 KTS
  • {Gusting to 25 KTS
Cloud Levels
  • Few at 2,200' AGL
  • Broken at 3,000' AGL

May-24@
15:00 UTC

May-24 @ 15:00 UTC

May-25@
03:00 UTC

May-25 @ 03:00 UTC

PROB40 TEMPO 2415/2503 SCT022

Expired

Cloud Levels
  • Scattered at 2,200' AGL

May-24@
19:00 UTC

May-24 @ 19:00 UTC

May-25@
09:00 UTC

May-25 @ 09:00 UTC

BECMG 2419/2422 22012KT

Becoming

Becoming Conditions expected by Sun, May 24, 2020 @ 22:00 UTC

Wind
  • 220° at 12 KTS
Cloud Levels
  • Few at 2,200' AGL
  • Broken at 3,000' AGL